sensor_id;sensor_type;location;lat;lon;timestamp;pressure;altitude;pressure_sealevel;temperature
18474;BMP180;30265;52.408;13.500;2023-02-26T00:09:11;101619.00;;;5.20
18474;BMP180;30265;52.408;13.500;2023-02-26T00:19:33;101653.00;;;5.10
18474;BMP180;30265;52.408;13.500;2023-02-26T00:29:57;101642.00;;;5.20
18474;BMP180;30265;52.408;13.500;2023-02-26T00:40:22;101659.00;;;5.20
18474;BMP180;30265;52.408;13.500;2023-02-26T00:50:51;101675.00;;;5.30
18474;BMP180;30265;52.408;13.500;2023-02-26T01:01:17;101680.00;;;5.40
18474;BMP180;30265;52.408;13.500;2023-02-26T01:11:41;101685.00;;;5.40
18474;BMP180;30265;52.408;13.500;2023-02-26T01:22:07;101696.00;;;5.40
18474;BMP180;30265;52.408;13.500;2023-02-26T01:32:41;101712.00;;;5.50
18474;BMP180;30265;52.408;13.500;2023-02-26T01:43:06;101708.00;;;5.50
18474;BMP180;30265;52.408;13.500;2023-02-26T01:53:31;101736.00;;;5.50
18474;BMP180;30265;52.408;13.500;2023-02-26T02:03:52;101749.00;;;5.50
18474;BMP180;30265;52.408;13.500;2023-02-26T02:14:21;101752.00;;;5.60
18474;BMP180;30265;52.408;13.500;2023-02-26T02:24:54;101760.00;;;5.60
18474;BMP180;30265;52.408;13.500;2023-02-26T02:35:22;101768.00;;;5.60
18474;BMP180;30265;52.408;13.500;2023-02-26T02:45:48;101791.00;;;5.60
18474;BMP180;30265;52.408;13.500;2023-02-26T02:56:15;101791.00;;;5.70
18474;BMP180;30265;52.408;13.500;2023-02-26T03:06:37;101807.00;;;5.60
18474;BMP180;30265;52.408;13.500;2023-02-26T03:17:16;101822.00;;;5.70
18474;BMP180;30265;52.408;13.500;2023-02-26T03:27:45;101828.00;;;5.60
18474;BMP180;30265;52.408;13.500;2023-02-26T03:38:13;101851.00;;;5.60
18474;BMP180;30265;52.408;13.500;2023-02-26T03:48:36;101872.00;;;5.60
18474;BMP180;30265;52.408;13.500;2023-02-26T03:59:00;101895.00;;;5.60
18474;BMP180;30265;52.408;13.500;2023-02-26T04:09:41;101906.00;;;5.50
18474;BMP180;30265;52.408;13.500;2023-02-26T04:20:06;101913.00;;;5.60
18474;BMP180;30265;52.408;13.500;2023-02-26T04:30:30;101924.00;;;5.60
18474;BMP180;30265;52.408;13.500;2023-02-26T04:40:54;101933.00;;;5.60
18474;BMP180;30265;52.408;13.500;2023-02-26T04:51:17;101959.00;;;5.70
18474;BMP180;30265;52.408;13.500;2023-02-26T05:01:40;101956.00;;;5.70
18474;BMP180;30265;52.408;13.500;2023-02-26T05:12:03;101993.00;;;5.70
18474;BMP180;30265;52.408;13.500;2023-02-26T05:22:27;101999.00;;;5.80
18474;BMP180;30265;52.408;13.500;2023-02-26T05:32:49;102015.00;;;5.80
18474;BMP180;30265;52.408;13.500;2023-02-26T05:43:12;102029.00;;;5.80
18474;BMP180;30265;52.408;13.500;2023-02-26T05:53:34;102042.00;;;5.80
18474;BMP180;30265;52.408;13.500;2023-02-26T06:03:56;102049.00;;;5.80
18474;BMP180;30265;52.408;13.500;2023-02-26T06:14:18;102062.00;;;5.80
18474;BMP180;30265;52.408;13.500;2023-02-26T06:24:41;102066.00;;;5.80
18474;BMP180;30265;52.408;13.500;2023-02-26T06:35:04;102081.00;;;5.90
18474;BMP180;30265;52.408;13.500;2023-02-26T06:45:27;102107.00;;;6.10
18474;BMP180;30265;52.408;13.500;2023-02-26T06:55:50;102114.00;;;6.40
18474;BMP180;30265;52.408;13.500;2023-02-26T07:06:14;102141.00;;;6.30
18474;BMP180;30265;52.408;13.500;2023-02-26T07:16:47;102163.00;;;6.40
18474;BMP180;30265;52.408;13.500;2023-02-26T07:27:10;102169.00;;;6.60
18474;BMP180;30265;52.408;13.500;2023-02-26T07:37:33;102195.00;;;6.60
18474;BMP180;30265;52.408;13.500;2023-02-26T07:47:56;102197.00;;;7.00
18474;BMP180;30265;52.408;13.500;2023-02-26T07:58:18;102237.00;;;6.40
18474;BMP180;30265;52.408;13.500;2023-02-26T08:08:40;102221.00;;;6.70
18474;BMP180;30265;52.408;13.500;2023-02-26T08:19:02;102219.00;;;7.00
18474;BMP180;30265;52.408;13.500;2023-02-26T08:29:25;102247.00;;;7.00
18474;BMP180;30265;52.408;13.500;2023-02-26T08:39:46;102261.00;;;7.10
18474;BMP180;30265;52.408;13.500;2023-02-26T08:50:11;102270.00;;;7.30
18474;BMP180;30265;52.408;13.500;2023-02-26T09:00:33;102280.00;;;7.30
18474;BMP180;30265;52.408;13.500;2023-02-26T09:10:58;102290.00;;;7.80
18474;BMP180;30265;52.408;13.500;2023-02-26T09:21:21;102300.00;;;7.70
18474;BMP180;30265;52.408;13.500;2023-02-26T09:31:44;102307.00;;;8.40
18474;BMP180;30265;52.408;13.500;2023-02-26T09:42:28;102339.00;;;8.10
18474;BMP180;30265;52.408;13.500;2023-02-26T09:52:55;102348.00;;;8.60
18474;BMP180;30265;52.408;13.500;2023-02-26T10:03:24;102333.00;;;8.50
18474;BMP180;30265;52.408;13.500;2023-02-26T10:13:51;102352.00;;;8.80
18474;BMP180;30265;52.408;13.500;2023-02-26T10:24:20;102358.00;;;8.80
18474;BMP180;30265;52.408;13.500;2023-02-26T10:34:49;102376.00;;;8.50
18474;BMP180;30265;52.408;13.500;2023-02-26T10:45:24;102387.00;;;8.80
18474;BMP180;30265;52.408;13.500;2023-02-26T10:55:52;102400.00;;;8.80
18474;BMP180;30265;52.408;13.500;2023-02-26T11:06:18;102407.00;;;8.90
18474;BMP180;30265;52.408;13.500;2023-02-26T11:16:46;102416.00;;;8.80
18474;BMP180;30265;52.408;13.500;2023-02-26T11:27:12;102441.00;;;8.40
18474;BMP180;30265;52.408;13.500;2023-02-26T11:37:39;102438.00;;;9.00
18474;BMP180;30265;52.408;13.500;2023-02-26T11:48:04;102467.00;;;8.70
18474;BMP180;30265;52.408;13.500;2023-02-26T11:58:29;102467.00;;;8.80
18474;BMP180;30265;52.408;13.500;2023-02-26T12:08:52;102476.00;;;8.20
18474;BMP180;30265;52.408;13.500;2023-02-26T12:19:20;102454.00;;;8.70
18474;BMP180;30265;52.408;13.500;2023-02-26T12:30:06;102445.00;;;10.00
18474;BMP180;30265;52.408;13.500;2023-02-26T12:51:39;102477.00;;;8.90
18474;BMP180;30265;52.408;13.500;2023-02-26T13:02:46;102476.00;;;8.80
18474;BMP180;30265;52.408;13.500;2023-02-26T13:23:59;102520.00;;;8.40
18474;BMP180;30265;52.408;13.500;2023-02-26T13:34:34;102483.00;;;9.40
18474;BMP180;30265;52.408;13.500;2023-02-26T13:45:12;102489.00;;;9.60
18474;BMP180;30265;52.408;13.500;2023-02-26T13:55:43;102532.00;;;8.50
18474;BMP180;30265;52.408;13.500;2023-02-26T14:06:38;102539.00;;;8.60
18474;BMP180;30265;52.408;13.500;2023-02-26T14:17:27;102539.00;;;9.00
18474;BMP180;30265;52.408;13.500;2023-02-26T14:38:51;102560.00;;;8.50
18474;BMP180;30265;52.408;13.500;2023-02-26T14:49:17;102575.00;;;8.40
18474;BMP180;30265;52.408;13.500;2023-02-26T15:00:09;102582.00;;;8.20
18474;BMP180;30265;52.408;13.500;2023-02-26T15:10:47;102592.00;;;8.10
18474;BMP180;30265;52.408;13.500;2023-02-26T15:21:21;102587.00;;;8.30
18474;BMP180;30265;52.408;13.500;2023-02-26T15:31:52;102592.00;;;8.20
18474;BMP180;30265;52.408;13.500;2023-02-26T15:42:17;102589.00;;;8.40
18474;BMP180;30265;52.408;13.500;2023-02-26T15:52:39;102593.00;;;8.70
18474;BMP180;30265;52.408;13.500;2023-02-26T16:03:03;102609.00;;;8.30
18474;BMP180;30265;52.408;13.500;2023-02-26T16:13:28;102629.00;;;8.10
18474;BMP180;30265;52.408;13.500;2023-02-26T16:23:53;102632.00;;;7.80
18474;BMP180;30265;52.408;13.500;2023-02-26T16:34:39;102646.00;;;7.50
18474;BMP180;30265;52.408;13.500;2023-02-26T16:45:18;102649.00;;;7.40
18474;BMP180;30265;52.408;13.500;2023-02-26T16:55:42;102683.00;;;7.30
18474;BMP180;30265;52.408;13.500;2023-02-26T17:06:12;102715.00;;;7.10
18474;BMP180;30265;52.408;13.500;2023-02-26T17:16:36;102737.00;;;6.90
18474;BMP180;30265;52.408;13.500;2023-02-26T17:27:01;102741.00;;;6.80
18474;BMP180;30265;52.408;13.500;2023-02-26T17:37:28;102774.00;;;6.70
18474;BMP180;30265;52.408;13.500;2023-02-26T17:47:52;102765.00;;;6.90
18474;BMP180;30265;52.408;13.500;2023-02-26T17:58:16;102774.00;;;6.90
18474;BMP180;30265;52.408;13.500;2023-02-26T18:08:42;102778.00;;;6.90
18474;BMP180;30265;52.408;13.500;2023-02-26T18:19:06;102799.00;;;6.70
18474;BMP180;30265;52.408;13.500;2023-02-26T18:29:29;102820.00;;;6.40
18474;BMP180;30265;52.408;13.500;2023-02-26T18:39:51;102824.00;;;6.00
18474;BMP180;30265;52.408;13.500;2023-02-26T18:50:17;102837.00;;;5.80
18474;BMP180;30265;52.408;13.500;2023-02-26T19:00:38;102855.00;;;5.70
18474;BMP180;30265;52.408;13.500;2023-02-26T19:11:02;102865.00;;;5.60
18474;BMP180;30265;52.408;13.500;2023-02-26T19:21:24;102876.00;;;5.60
18474;BMP180;30265;52.408;13.500;2023-02-26T19:31:48;102883.00;;;5.40
18474;BMP180;30265;52.408;13.500;2023-02-26T19:42:10;102881.00;;;5.30
18474;BMP180;30265;52.408;13.500;2023-02-26T19:52:33;102900.00;;;5.30
18474;BMP180;30265;52.408;13.500;2023-02-26T20:02:56;102911.00;;;5.10
18474;BMP180;30265;52.408;13.500;2023-02-26T20:13:20;102917.00;;;5.10
18474;BMP180;30265;52.408;13.500;2023-02-26T20:23:43;102946.00;;;4.90
18474;BMP180;30265;52.408;13.500;2023-02-26T20:34:06;102961.00;;;4.80
18474;BMP180;30265;52.408;13.500;2023-02-26T20:44:27;102967.00;;;4.60
18474;BMP180;30265;52.408;13.500;2023-02-26T20:54:50;102984.00;;;4.50
18474;BMP180;30265;52.408;13.500;2023-02-26T21:05:12;102995.00;;;4.70
18474;BMP180;30265;52.408;13.500;2023-02-26T21:15:35;102996.00;;;4.90
18474;BMP180;30265;52.408;13.500;2023-02-26T21:25:57;102997.00;;;5.10
18474;BMP180;30265;52.408;13.500;2023-02-26T21:36:20;103009.00;;;5.00
18474;BMP180;30265;52.408;13.500;2023-02-26T21:46:41;103015.00;;;5.00
18474;BMP180;30265;52.408;13.500;2023-02-26T21:57:05;103008.00;;;5.40
18474;BMP180;30265;52.408;13.500;2023-02-26T22:07:30;103025.00;;;5.40
18474;BMP180;30265;52.408;13.500;2023-02-26T22:18:00;103020.00;;;5.50
18474;BMP180;30265;52.408;13.500;2023-02-26T22:28:25;103030.00;;;5.40
18474;BMP180;30265;52.408;13.500;2023-02-26T22:38:52;103037.00;;;5.30
18474;BMP180;30265;52.408;13.500;2023-02-26T22:49:24;103056.00;;;5.20
18474;BMP180;30265;52.408;13.500;2023-02-26T22:59:47;103050.00;;;5.30
18474;BMP180;30265;52.408;13.500;2023-02-26T23:10:14;103054.00;;;5.20
18474;BMP180;30265;52.408;13.500;2023-02-26T23:20:44;103047.00;;;5.20
18474;BMP180;30265;52.408;13.500;2023-02-26T23:31:07;103040.00;;;5.20
18474;BMP180;30265;52.408;13.500;2023-02-26T23:41:31;103057.00;;;5.30
18474;BMP180;30265;52.408;13.500;2023-02-26T23:51:53;103054.00;;;5.30
